Tavernes de la Valldigna, Spain
Current Conditions -  °F | °C
As of 3:30 PM on Thursday 30 Oct 2014 (Local Time) from LEVC Reporting Station
Few Clouds Few Clouds  
Wind Chill: 23°   Ceiling: Unl
Heat Index: 23°   Visibility: 6mi
Dew Point: 16°   Wind: 6mph
Humidity: 65%   Direction: 120°ESE
Pressure: 30.15"   Gusts: NA
Location:  39.07°N, 0.27°W
Report Text: LEVC 301430Z 12005KT 080V150 9999 FEW035 23/16 Q1021 NOSIG
Loading
Personal Weather Stations






























Interactive Weather Map
Tropical Storm Tracking
New forecast layout! Learn more

10-Day Weather Forecast

Advertisements
Track Severe Weather on mobile